Time;durP1;ratioP1;P1;durP2;ratioP2;P2;SDS_P1;SDS_P2;PMS_P1;PMS_P2;Temp;Humidity;BMP_temperature;BMP_pressure;BME280_temperature;BME280_humidity;BME280_pressure;Samples;Min_cycle;Max_cycle;Signal;HPM_P1;HPM_P2
2021/10/29 00:01:05;;;;;;;30.80;10.35;;;;;;;9.03;100.00;98831.19;4975722;28;20419;-85
2021/10/29 00:03:31;;;;;;;28.55;9.88;;;;;;;9.03;100.00;98829.31;4991827;28;20037;-84
2021/10/29 00:05:58;;;;;;;28.23;11.20;;;;;;;9.03;100.00;98831.19;4991832;28;20460;-82
2021/10/29 00:08:23;;;;;;;35.65;11.70;;;;;;;8.93;100.00;98817.41;4959747;28;20093;-86
2021/10/29 00:10:49;;;;;;;29.45;10.35;;;;;;;8.90;100.00;98818.66;4991943;28;20051;-84
2021/10/29 00:13:15;;;;;;;25.13;10.23;;;;;;;8.94;100.00;98827.91;4991794;28;20033;-84
2021/10/29 00:15:41;;;;;;;28.25;9.85;;;;;;;8.94;100.00;98830.59;4975483;28;20034;-86
2021/10/29 00:18:07;;;;;;;26.67;10.25;;;;;;;8.89;100.00;98822.38;4975595;28;20045;-87
2021/10/29 00:20:33;;;;;;;25.92;9.57;;;;;;;8.89;100.00;98826.91;4991506;28;20034;-83
2021/10/29 00:22:58;;;;;;;27.75;8.55;;;;;;;8.86;100.00;98817.41;4991752;28;20030;-84
2021/10/29 00:25:24;;;;;;;26.20;9.60;;;;;;;8.88;100.00;98811.88;4991750;28;20022;-84
2021/10/29 00:27:50;;;;;;;21.85;8.27;;;;;;;8.83;100.00;98817.84;4991279;28;20035;-86
2021/10/29 00:30:16;;;;;;;25.58;8.68;;;;;;;8.77;100.00;98808.00;4975381;28;20044;-84
2021/10/29 00:32:41;;;;;;;25.55;8.98;;;;;;;8.78;100.00;98809.63;4974722;28;20093;-85
2021/10/29 00:35:08;;;;;;;25.55;8.40;;;;;;;8.71;100.00;98804.31;4975073;28;20026;-84
2021/10/29 00:37:38;;;;;;;25.05;8.45;;;;;;;8.76;100.00;98806.34;4959229;28;20036;-88
2021/10/29 00:40:11;;;;;;;29.48;8.55;;;;;;;8.76;100.00;98801.00;4991541;28;20034;-85
2021/10/29 00:42:38;;;;;;;32.17;8.00;;;;;;;8.79;100.00;98790.66;4991163;28;20034;-84
2021/10/29 00:45:05;;;;;;;27.33;8.73;;;;;;;8.82;100.00;98799.31;4974975;28;20026;-85
2021/10/29 00:47:31;;;;;;;22.80;8.60;;;;;;;8.89;100.00;98800.09;5007058;28;20109;-82
2021/10/29 00:49:57;;;;;;;24.85;8.63;;;;;;;8.96;100.00;98790.19;4975414;28;20130;-83
2021/10/29 00:52:23;;;;;;;25.38;8.00;;;;;;;8.94;100.00;98786.88;4991014;28;20129;-85
2021/10/29 00:54:48;;;;;;;23.92;8.30;;;;;;;9.02;100.00;98783.94;4990914;28;20030;-84
2021/10/29 00:57:14;;;;;;;37.72;9.48;;;;;;;8.98;100.00;98769.34;5007148;28;20508;-83
2021/10/29 00:59:40;;;;;;;23.27;8.00;;;;;;;9.05;100.00;98777.34;4958692;28;20036;-82
2021/10/29 01:02:06;;;;;;;28.88;8.05;;;;;;;9.09;100.00;98783.94;4991984;28;20400;-84
2021/10/29 01:04:32;;;;;;;27.65;7.90;;;;;;;9.02;100.00;98762.50;4991078;28;20452;-84
2021/10/29 01:06:57;;;;;;;31.05;8.35;;;;;;;9.03;100.00;98756.94;4991272;28;20034;-85
2021/10/29 01:09:25;;;;;;;26.88;7.72;;;;;;;9.02;100.00;98746.41;4990688;28;20053;-84
2021/10/29 01:11:51;;;;;;;30.55;8.80;;;;;;;9.04;100.00;98739.00;4992202;28;20171;-82
2021/10/29 01:14:17;;;;;;;29.35;9.00;;;;;;;9.09;100.00;98747.22;4974362;28;20073;-85
2021/10/29 01:16:42;;;;;;;33.47;9.32;;;;;;;9.08;100.00;98748.25;4992143;28;20076;-84
2021/10/29 01:19:10;;;;;;;31.05;8.52;;;;;;;9.10;100.00;98764.94;4990490;28;20038;-83
2021/10/29 01:21:36;;;;;;;37.90;9.32;;;;;;;9.08;100.00;98764.34;4975225;28;20408;-85
2021/10/29 01:24:02;;;;;;;31.38;9.75;;;;;;;9.08;100.00;98745.59;4991891;28;20022;-83
2021/10/29 01:26:28;;;;;;;34.35;8.55;;;;;;;9.09;100.00;98757.13;4974921;28;20026;-84
2021/10/29 01:28:55;;;;;;;31.13;9.50;;;;;;;9.11;100.00;98750.50;4990288;28;20376;-84
2021/10/29 01:31:21;;;;;;;39.72;10.50;;;;;;;9.15;100.00;98754.38;4990609;28;20030;-84
2021/10/29 01:33:47;;;;;;;35.50;9.38;;;;;;;9.10;100.00;98738.13;4958452;28;20022;-85
2021/10/29 01:36:12;;;;;;;29.83;9.40;;;;;;;9.13;100.00;98752.97;4990531;28;20022;-82
2021/10/29 01:38:44;;;;;;;39.83;9.75;;;;;;;9.13;100.00;98747.59;5006726;28;20034;-84
2021/10/29 01:41:10;;;;;;;40.90;10.75;;;;;;;9.20;100.00;98753.75;4990831;28;20093;-84
2021/10/29 01:43:43;;;;;;;39.03;10.05;;;;;;;9.21;100.00;98750.84;4990225;28;20045;-83
2021/10/29 01:46:10;;;;;;;37.50;9.38;;;;;;;9.15;100.00;98742.84;4974782;28;20599;-84
2021/10/29 01:48:50;;;;;;;36.00;9.45;;;;;;;9.25;100.00;98762.78;5007080;28;20472;-84
2021/10/29 01:51:16;;;;;;;47.67;9.65;;;;;;;9.25;100.00;98756.59;4991609;28;20026;-84
2021/10/29 01:53:42;;;;;;;36.80;9.65;;;;;;;9.27;100.00;98759.09;4990336;28;20054;-84
2021/10/29 01:56:08;;;;;;;40.38;9.75;;;;;;;9.25;100.00;98756.59;4990335;28;20485;-85
2021/10/29 01:58:34;;;;;;;35.38;7.95;;;;;;;9.23;100.00;98751.47;4990696;28;20365;-87
2021/10/29 02:01:00;;;;;;;36.50;8.68;;;;;;;9.25;100.00;98756.59;5009139;28;20018;-84
2021/10/29 02:03:26;;;;;;;34.03;7.72;;;;;;;9.25;100.00;98757.41;4994315;28;20034;-86
2021/10/29 02:05:52;;;;;;;31.50;8.55;;;;;;;9.25;100.00;98746.69;4994284;28;20518;-83
2021/10/29 02:08:22;;;;;;;35.10;8.63;;;;;;;9.28;100.00;98756.16;4994008;28;20026;-86
2021/10/29 02:10:48;;;;;;;32.67;8.95;;;;;;;9.32;100.00;98753.91;5009407;28;20031;-83
2021/10/29 02:13:14;;;;;;;30.42;8.45;;;;;;;9.27;100.00;98751.84;4994049;28;20365;-84
2021/10/29 02:15:39;;;;;;;33.22;7.60;;;;;;;9.16;100.00;98734.59;4993744;28;20030;-85
2021/10/29 02:18:05;;;;;;;38.15;8.00;;;;;;;9.24;100.00;98750.44;4994032;28;20037;-85
2021/10/29 02:20:31;;;;;;;29.02;7.85;;;;;;;9.20;100.00;98748.38;4994788;28;20415;-82
2021/10/29 02:22:56;;;;;;;39.28;8.50;;;;;;;9.18;100.00;98747.78;4993628;28;20499;-83
2021/10/29 02:25:22;;;;;;;34.70;8.55;;;;;;;9.13;100.00;98743.06;5010102;28;20026;-83
2021/10/29 02:27:48;;;;;;;35.85;8.50;;;;;;;9.16;100.00;98757.91;4993931;28;20109;-85
2021/10/29 02:30:14;;;;;;;33.05;9.77;;;;;;;9.08;100.00;98729.50;4993453;28;20109;-83
2021/10/29 02:32:39;;;;;;;45.25;9.00;;;;;;;9.15;100.00;98746.34;4977441;28;20036;-84
2021/10/29 02:35:05;;;;;;;36.00;8.50;;;;;;;9.02;100.00;98717.78;4994685;28;20376;-85
2021/10/29 02:37:32;;;;;;;31.88;8.30;;;;;;;9.04;100.00;98725.59;5009533;28;20030;-86
2021/10/29 02:39:57;;;;;;;29.33;8.07;;;;;;;9.12;100.00;98736.06;5009577;28;20030;-84
2021/10/29 02:42:23;;;;;;;31.65;9.73;;;;;;;9.13;100.00;98720.78;4977494;28;20026;-86
2021/10/29 02:44:48;;;;;;;27.48;8.85;;;;;;;9.15;100.00;98713.34;4993406;28;20026;-84
2021/10/29 02:47:15;;;;;;;32.28;9.45;;;;;;;9.15;100.00;98711.47;4977246;28;20456;-84
2021/10/29 02:49:41;;;;;;;30.08;8.55;;;;;;;9.18;100.00;98710.22;4993587;28;20062;-83
2021/10/29 02:52:07;;;;;;;34.22;9.77;;;;;;;9.19;100.00;98714.56;4993085;28;20117;-83
2021/10/29 02:54:32;;;;;;;33.22;8.43;;;;;;;9.14;100.00;98707.19;4976939;28;20038;-85
2021/10/29 02:56:58;;;;;;;32.35;8.82;;;;;;;9.17;100.00;98706.72;4993027;28;20086;-84
2021/10/29 02:59:24;;;;;;;31.13;8.75;;;;;;;9.11;100.00;98693.38;4992987;28;20034;-83
2021/10/29 03:01:49;;;;;;;28.27;8.55;;;;;;;9.15;100.00;98692.72;5009501;28;20049;-85
2021/10/29 03:04:15;;;;;;;27.25;7.90;;;;;;;9.22;100.00;98704.22;4976918;28;20026;-85
2021/10/29 03:06:41;;;;;;;33.03;8.77;;;;;;;9.16;100.00;98693.56;4992647;28;20053;-86
2021/10/29 03:09:07;;;;;;;35.05;8.98;;;;;;;9.20;100.00;98690.22;4992689;28;20457;-84
2021/10/29 03:11:33;;;;;;;37.35;9.75;;;;;;;9.20;100.00;98690.22;4976340;28;20022;-85
2021/10/29 03:13:58;;;;;;;40.30;9.35;;;;;;;9.14;100.00;98682.22;4976912;28;20040;-84
2021/10/29 03:16:24;;;;;;;37.72;9.18;;;;;;;9.09;100.00;98677.50;4993928;28;20427;-84
2021/10/29 03:18:49;;;;;;;26.98;8.07;;;;;;;9.12;100.00;98677.06;5009267;28;20058;-81
2021/10/29 03:21:15;;;;;;;61.63;8.27;;;;;;;9.10;100.00;98684.50;4992650;28;20679;-86
2021/10/29 03:23:42;;;;;;;52.30;8.57;;;;;;;9.02;100.00;98666.84;4976904;28;20044;-85
2021/10/29 03:26:08;;;;;;;84.45;8.80;;;;;;;9.00;100.00;98670.78;4992803;28;20033;-83
2021/10/29 03:28:34;;;;;;;40.58;6.63;;;;;;;8.93;100.00;98670.81;4992893;28;20038;-85
2021/10/29 03:31:00;;;;;;;33.90;6.43;;;;;;;8.76;100.00;98658.97;4992862;28;20034;-86
2021/10/29 03:33:26;;;;;;;27.38;5.10;;;;;;;8.72;100.00;98663.13;4992846;28;20029;-84
2021/10/29 03:35:52;;;;;;;28.33;5.55;;;;;;;8.64;100.00;98655.34;4976634;28;20041;-85
2021/10/29 03:39:03;;;;;;;21.02;5.25;;;;;;;8.58;100.00;98667.72;4992380;28;20026;-83
2021/10/29 03:41:09;;;;;;;27.35;6.05;;;;;;;8.47;100.00;98655.84;4975834;28;20389;-85
2021/10/29 03:43:43;;;;;;;36.60;6.47;;;;;;;8.38;100.00;98649.84;4992560;28;20033;-85
2021/10/29 03:56:19;;;;;;;24.90;6.15;;;;;;;8.17;100.00;98628.72;4992135;28;20118;-82
2021/10/29 03:58:47;;;;;;;23.90;5.70;;;;;;;8.17;100.00;98642.13;4992135;28;20030;-86
2021/10/29 04:01:13;;;;;;;18.85;5.30;;;;;;;8.09;100.00;98637.00;5008081;28;20523;-85
2021/10/29 04:03:39;;;;;;;19.20;6.28;;;;;;;8.17;100.00;98642.13;5008186;28;20182;-83
2021/10/29 04:06:05;;;;;;;24.10;5.68;;;;;;;8.15;100.00;98623.63;5008205;28;20041;-83
2021/10/29 04:08:31;;;;;;;16.05;5.05;;;;;;;8.10;100.00;98623.44;4992060;28;20460;-85
2021/10/29 04:10:57;;;;;;;23.95;6.43;;;;;;;8.11;100.00;98629.59;4991952;28;20037;-84
2021/10/29 04:13:26;;;;;;;17.60;5.68;;;;;;;8.03;100.00;98619.94;4975381;28;20472;-81
2021/10/29 04:15:52;;;;;;;22.35;5.85;;;;;;;7.97;100.00;98622.66;4976194;28;20461;-86
2021/10/29 04:18:17;;;;;;;18.02;5.60;;;;;;;7.92;100.00;98629.44;4991964;28;20034;-84
2021/10/29 04:20:43;;;;;;;18.52;6.00;;;;;;;7.81;100.00;98618.59;4975704;28;20022;-82
2021/10/29 04:23:08;;;;;;;16.48;5.43;;;;;;;7.72;100.00;98623.31;4990796;28;20040;-85
2021/10/29 04:25:34;;;;;;;17.92;5.75;;;;;;;7.57;100.00;98609.38;4991616;28;20364;-87
2021/10/29 04:28:05;;;;;;;22.45;6.22;;;;;;;7.53;100.00;98630.38;4975251;28;20033;-83
2021/10/29 04:30:31;;;;;;;20.73;5.82;;;;;;;7.40;100.00;98625.84;4991661;28;20490;-85
2021/10/29 04:32:57;;;;;;;30.58;5.95;;;;;;;7.34;100.00;98628.56;5007690;28;20030;-85
2021/10/29 04:35:24;;;;;;;41.38;8.68;;;;;;;7.25;100.00;98614.56;5007596;28;20025;-81
2021/10/29 04:37:50;;;;;;;51.58;7.47;;;;;;;7.22;100.00;98617.63;5007392;28;20100;-84
2021/10/29 04:40:17;;;;;;;51.67;7.40;;;;;;;7.29;100.00;98631.03;4975079;28;20468;-84
2021/10/29 04:42:43;;;;;;;44.47;5.93;;;;;;;7.27;100.00;98615.16;4974732;28;20034;-86
2021/10/29 04:45:09;;;;;;;25.77;4.78;;;;;;;7.29;100.00;98621.13;4991156;28;20348;-84
2021/10/29 04:47:35;;;;;;;26.08;4.82;;;;;;;7.31;100.00;98634.31;5007199;28;20543;-82
2021/10/29 04:50:03;;;;;;;23.63;4.28;;;;;;;7.26;100.00;98625.06;5007633;28;20033;-84
2021/10/29 04:52:29;;;;;;;14.95;4.85;;;;;;;7.24;100.00;98623.63;5007389;28;20057;-86
2021/10/29 04:54:56;;;;;;;15.52;4.70;;;;;;;7.16;100.00;98618.47;4975040;28;20054;-86
2021/10/29 04:57:22;;;;;;;13.55;4.53;;;;;;;7.10;100.00;98620.13;4991377;28;20022;-86
2021/10/29 04:59:47;;;;;;;13.75;4.25;;;;;;;7.05;100.00;98623.41;4959128;28;20461;-85
2021/10/29 05:02:13;;;;;;;17.60;4.80;;;;;;;7.04;100.00;98647.69;4992146;28;20034;-83
2021/10/29 05:04:39;;;;;;;11.50;4.47;;;;;;;6.97;100.00;98642.31;4975122;28;20034;-85
2021/10/29 05:07:05;;;;;;;11.30;4.18;;;;;;;6.89;100.00;98637.19;5007482;28;20037;-83
2021/10/29 05:09:31;;;;;;;14.20;4.45;;;;;;;6.91;100.00;98645.81;4990613;28;20372;-83
2021/10/29 05:11:56;;;;;;;12.20;5.03;;;;;;;6.84;100.00;98636.97;4990923;28;20062;-83
2021/10/29 05:14:22;;;;;;;10.18;4.22;;;;;;;6.79;100.00;98642.09;4990536;28;20026;-82
2021/10/29 05:16:50;;;;;;;14.98;4.78;;;;;;;6.79;100.00;98644.75;4990894;28;20053;-83
2021/10/29 05:19:15;;;;;;;20.48;4.60;;;;;;;6.72;100.00;98646.59;4958714;28;20034;-85
2021/10/29 05:21:41;;;;;;;20.42;4.82;;;;;;;6.58;100.00;98643.06;4991937;28;20030;-83
2021/10/29 05:24:07;;;;;;;31.75;4.97;;;;;;;6.57;100.00;98658.28;4990558;28;20026;-84
2021/10/29 05:26:33;;;;;;;15.57;4.15;;;;;;;6.50;100.00;98651.28;4974443;28;20461;-83
2021/10/29 05:28:58;;;;;;;41.08;5.43;;;;;;;6.51;100.00;98653.75;4990866;28;20084;-84
2021/10/29 05:31:24;;;;;;;19.15;4.55;;;;;;;6.46;100.00;98636.69;4991985;28;20026;-87
2021/10/29 05:33:49;;;;;;;17.15;4.72;;;;;;;6.38;100.00;98637.69;4992392;28;20022;-83
2021/10/29 05:36:15;;;;;;;17.85;4.57;;;;;;;6.44;100.00;98636.06;5010994;28;20266;-86
2021/10/29 05:38:41;;;;;;;19.73;5.47;;;;;;;6.45;100.00;98638.50;5010875;28;20045;-85
2021/10/29 05:41:06;;;;;;;21.10;4.78;;;;;;;6.57;100.00;98650.25;4994846;28;20030;-84
2021/10/29 05:43:32;;;;;;;23.80;4.55;;;;;;;6.51;100.00;98637.72;4994599;28;20030;-85
2021/10/29 05:45:57;;;;;;;23.42;4.70;;;;;;;6.57;100.00;98650.25;4994822;28;20041;-83
2021/10/29 05:48:23;;;;;;;14.68;4.80;;;;;;;6.55;100.00;98641.63;5010574;28;20026;-81
2021/10/29 05:50:50;;;;;;;23.08;7.28;;;;;;;6.65;100.00;98649.25;4978133;28;20022;-86
2021/10/29 05:53:51;;;;;;;20.27;6.68;;;;;;;6.71;100.00;98653.78;4994220;28;20026;-86
2021/10/29 05:56:07;;;;;;;22.30;5.50;;;;;;;6.80;100.00;98649.06;4993024;28;20126;-86
2021/10/29 05:58:35;;;;;;;12.13;4.60;;;;;;;6.86;100.00;98648.28;4995466;28;20022;-84
2021/10/29 06:01:01;;;;;;;13.60;5.30;;;;;;;6.89;100.00;98639.84;4995261;28;20045;-82
2021/10/29 06:03:27;;;;;;;13.25;3.80;;;;;;;7.04;100.00;98643.16;5010495;28;20084;-84
2021/10/29 06:05:53;;;;;;;13.23;5.10;;;;;;;7.09;100.00;98644.38;4993971;28;20456;-85
2021/10/29 06:08:18;;;;;;;16.35;5.80;;;;;;;7.15;100.00;98643.56;4993925;28;20038;-83
2021/10/29 06:10:44;;;;;;;13.95;4.65;;;;;;;7.12;100.00;98639.47;4994188;28;20038;-85
2021/10/29 06:13:10;;;;;;;9.43;3.35;;;;;;;7.10;100.00;98635.34;4993932;28;20022;-84
2021/10/29 06:15:38;;;;;;;12.90;4.07;;;;;;;7.08;100.00;98654.25;4977690;28;20034;-82
2021/10/29 06:18:03;;;;;;;13.75;3.85;;;;;;;6.98;100.00;98638.59;4994037;28;20053;-81
2021/10/29 06:20:31;;;;;;;12.07;3.83;;;;;;;6.89;100.00;98634.50;4993961;28;20419;-86
2021/10/29 06:22:57;;;;;;;13.63;3.58;;;;;;;6.83;100.00;98627.31;5010470;28;20036;-85
2021/10/29 06:25:28;;;;;;;9.48;3.65;;;;;;;6.82;100.00;98636.34;4994690;28;20415;-82
2021/10/29 06:30:41;;;;;;;16.60;3.55;;;;;;;6.71;100.00;98643.09;5007420;28;20030;-81
2021/10/29 06:33:15;;;;;;;13.20;3.78;;;;;;;6.67;100.00;98643.69;5009754;28;20535;-84
2021/10/29 06:35:42;;;;;;;11.63;3.13;;;;;;;6.49;100.00;98617.59;5010066;28;20037;-83
2021/10/29 06:38:09;;;;;;;13.93;3.50;;;;;;;6.49;100.00;98633.63;5009757;28;20101;-86
2021/10/29 06:40:55;;;;;;;17.98;4.00;;;;;;;6.44;100.00;98644.88;5009846;28;20031;-84
2021/10/29 06:43:26;;;;;;;15.65;3.05;;;;;;;6.34;100.00;98645.25;4993727;28;20046;-81
2021/10/29 06:59:42;;;;;;;13.98;3.28;;;;;;;6.05;100.00;98650.91;5009531;28;20040;-83
2021/10/29 07:02:29;;;;;;;15.60;3.35;;;;;;;5.92;100.00;98641.75;4979565;28;20057;-86
2021/10/29 07:40:17;;;;;;;19.70;7.32;;;;;;;5.69;100.00;98655.41;4992418;28;20041;-84
2021/10/29 07:43:00;;;;;;;16.23;6.88;;;;;;;5.63;100.00;98644.69;4992328;28;20026;-86
2021/10/29 07:45:27;;;;;;;17.13;5.05;;;;;;;5.65;100.00;98656.81;4992494;28;20068;-83
2021/10/29 07:47:57;;;;;;;19.33;6.43;;;;;;;5.66;100.00;98652.28;5008309;28;20280;-83
2021/10/29 07:50:24;;;;;;;19.58;5.80;;;;;;;5.65;100.00;98655.97;4975831;28;20369;-84
2021/10/29 07:52:51;;;;;;;22.73;7.72;;;;;;;5.64;100.00;98657.84;4992070;28;20408;-84
2021/10/29 07:55:19;;;;;;;22.40;9.85;;;;;;;5.63;100.00;98658.00;5008657;28;20026;-84
2021/10/29 07:57:46;;;;;;;20.73;7.40;;;;;;;5.64;100.00;98659.69;4991181;28;20038;-85
2021/10/29 08:00:14;;;;;;;22.60;8.98;;;;;;;5.66;100.00;98677.13;5008432;28;20062;-83
2021/10/29 08:02:39;;;;;;;20.08;5.95;;;;;;;5.63;100.00;98666.00;4975708;28;20034;-86
2021/10/29 08:05:05;;;;;;;29.38;6.07;;;;;;;5.57;100.00;98666.81;4992217;28;20049;-85
2021/10/29 08:07:32;;;;;;;37.45;7.78;;;;;;;5.52;100.00;98670.03;4959620;28;20125;-83
2021/10/29 08:10:01;;;;;;;59.22;10.93;;;;;;;5.42;100.00;98670.38;4975785;28;20065;-82
2021/10/29 08:12:26;;;;;;;53.70;9.95;;;;;;;5.44;100.00;98683.53;4959796;28;20052;-85
2021/10/29 08:14:52;;;;;;;30.58;6.32;;;;;;;5.40;100.00;98656.44;4975466;28;20112;-84
2021/10/29 08:17:18;;;;;;;34.28;6.85;;;;;;;5.52;100.00;98672.72;4991281;28;20030;-85
2021/10/29 08:19:45;;;;;;;13.38;3.83;;;;;;;5.66;100.00;98676.28;4991916;28;20310;-87
2021/10/29 08:22:10;;;;;;;13.65;2.95;;;;;;;5.65;100.00;98671.97;4959551;28;20126;-85
2021/10/29 08:24:37;;;;;;;11.32;2.55;;;;;;;5.70;100.00;98681.03;4959559;28;20113;-84
2021/10/29 08:27:05;;;;;;;14.18;2.47;;;;;;;5.66;100.00;98670.94;4992636;28;20062;-83
2021/10/29 08:29:30;;;;;;;7.25;2.58;;;;;;;5.63;100.00;98672.16;4991708;28;20038;-84
2021/10/29 08:31:56;;;;;;;4.13;2.30;;;;;;;5.72;100.00;98689.66;4990960;28;20101;-84
2021/10/29 08:34:25;;;;;;;9.95;2.80;;;;;;;5.81;100.00;98685.00;4959517;28;20038;-84
2021/10/29 08:37:03;;;;;;;11.23;2.47;;;;;;;5.94;100.00;98684.28;5007945;28;20053;-83
2021/10/29 08:39:29;;;;;;;5.18;2.25;;;;;;;6.02;100.00;98678.78;4991401;28;20450;-84
2021/10/29 08:41:56;;;;;;;7.45;2.92;;;;;;;6.15;100.00;98686.88;5007658;28;20080;-87
2021/10/29 08:44:24;;;;;;;9.45;3.03;;;;;;;6.26;100.00;98690.00;4991271;28;20022;-83
2021/10/29 08:46:50;;;;;;;18.23;4.53;;;;;;;6.30;100.00;98673.38;4991348;28;20026;-86
2021/10/29 08:49:16;;;;;;;13.15;4.15;;;;;;;6.51;100.00;98688.47;5007792;28;20029;-85
2021/10/29 08:51:42;;;;;;;31.80;12.50;;;;;;;6.64;100.00;98700.19;4975150;28;20022;-82
2021/10/29 08:54:08;;;;;;;25.05;7.32;;;;;;;6.78;100.00;98685.88;4959021;28;20041;-86
2021/10/29 08:56:34;;;;;;;20.88;4.22;;;;;;;6.90;100.00;98692.25;4991306;28;20022;-87
2021/10/29 08:59:04;;;;;;;13.50;5.05;;;;;;;6.94;100.00;98673.97;4991756;28;20026;-86
2021/10/29 09:01:56;;;;;;;14.98;3.38;;;;;;;7.13;100.00;98691.06;4990724;28;20444;-85
2021/10/29 09:04:38;;;;;;;12.13;3.53;;;;;;;7.23;100.00;98691.47;4975311;28;20027;-83
2021/10/29 09:31:35;;;;;;;7.57;1.95;;;;;;;8.55;100.00;98708.34;4991116;28;20539;-86
2021/10/29 09:34:05;;;;;;;12.77;2.58;;;;;;;8.80;100.00;98711.09;5007186;28;20049;-85
2021/10/29 09:36:34;;;;;;;11.70;2.58;;;;;;;8.91;100.00;98697.00;4974675;28;20026;-85
2021/10/29 09:39:11;;;;;;;7.55;2.30;;;;;;;9.06;100.00;98699.41;4990750;28;20050;-83
2021/10/29 09:41:37;;;;;;;11.90;2.17;;;;;;;9.16;100.00;98699.75;5007190;28;20040;-85
2021/10/29 09:44:15;;;;;;;9.48;2.30;;;;;;;9.23;100.00;98700.53;5006886;28;20022;-84
2021/10/29 09:46:48;;;;;;;12.07;2.03;;;;;;;9.25;100.00;98703.78;5006481;28;20030;-86
2021/10/29 09:49:23;;;;;;;14.48;2.10;;;;;;;9.25;100.00;98693.06;4991803;28;20032;-84
2021/10/29 09:51:54;;;;;;;5.70;2.20;;;;;;;9.32;100.00;98692.22;5007113;28;20620;-85
2021/10/29 09:54:32;;;;;;;7.78;1.80;;;;;;;9.39;100.00;98698.31;4990035;28;20034;-85
2021/10/29 09:57:00;;;;;;;7.10;2.38;;;;;;;9.47;100.00;98700.72;5005887;28;20027;-84
2021/10/29 09:59:28;;;;;;;9.18;2.40;;;;;;;9.65;100.00;98689.22;4990437;28;20027;-85
2021/10/29 10:01:54;;;;;;;5.38;2.03;;;;;;;9.75;100.00;98675.31;4990716;28;20026;-86
2021/10/29 10:04:21;;;;;;;13.40;2.85;;;;;;;9.73;100.00;98683.56;4974426;28;20034;-84
2021/10/29 10:06:47;;;;;;;5.90;1.45;;;;;;;9.53;100.00;98675.72;4974438;28;20076;-83
2021/10/29 10:09:13;;;;;;;9.15;2.47;;;;;;;9.54;100.00;98684.59;5006971;28;20041;-84
2021/10/29 10:11:43;;;;;;;10.27;1.92;;;;;;;9.55;100.00;98687.06;5006770;28;20023;-84
2021/10/29 10:14:10;;;;;;;14.95;3.50;;;;;;;9.53;100.00;98681.09;4974109;28;20034;-84
2021/10/29 10:16:38;;;;;;;5.80;2.13;;;;;;;9.58;100.00;98688.47;4990593;28;20085;-85
2021/10/29 10:19:06;;;;;;;15.25;4.35;;;;;;;9.63;100.00;98680.56;5006192;28;20030;-85
2021/10/29 10:21:38;;;;;;;11.85;3.10;;;;;;;9.72;100.00;98694.56;4992115;28;20096;-85
2021/10/29 10:24:05;;;;;;;13.02;2.28;;;;;;;9.82;100.00;98686.81;4994156;28;20265;-85
2021/10/29 10:29:15;;;;;;;8.98;1.83;;;;;;;9.62;100.00;98674.38;5010234;28;20122;-83
2021/10/29 10:40:23;;;;;;;3.38;1.17;;;;;;;10.18;100.00;98671.75;4996152;28;20022;-85
2021/10/29 10:48:36;;;;;;;9.25;1.55;;;;;;;11.10;99.86;98663.53;4993360;28;20038;-86
2021/10/29 10:57:28;;;;;;;7.45;1.60;;;;;;;12.33;96.58;98661.78;4991796;28;20046;-84
2021/10/29 11:00:31;;;;;;;10.13;1.40;;;;;;;12.50;95.53;98661.84;4991753;28;20030;-83
2021/10/29 11:05:46;;;;;;;8.98;1.77;;;;;;;12.68;92.60;98647.38;5009502;28;20026;-84
2021/10/29 11:10:59;;;;;;;8.90;1.90;;;;;;;13.19;92.80;98662.56;4993147;28;20034;-85
2021/10/29 11:13:47;;;;;;;5.68;1.48;;;;;;;13.17;92.18;98653.09;5009036;28;20624;-86
2021/10/29 11:16:34;;;;;;;12.20;1.50;;;;;;;13.22;92.16;98655.88;4989167;28;20047;-86
2021/10/29 11:19:15;;;;;;;11.98;1.52;;;;;;;13.80;90.48;98654.66;4994313;28;20069;-84
2021/10/29 11:21:59;;;;;;;11.68;2.08;;;;;;;14.31;88.06;98657.19;4992925;28;20535;-85
2021/10/29 11:24:38;;;;;;;4.28;1.30;;;;;;;14.68;86.35;98651.97;4994219;28;20034;-85
2021/10/29 11:27:06;;;;;;;8.48;1.67;;;;;;;15.14;87.45;98660.56;4960698;28;20076;-86
2021/10/29 11:29:44;;;;;;;5.18;1.33;;;;;;;14.64;88.37;98656.28;4993709;28;20449;-83
2021/10/29 11:32:11;;;;;;;8.55;1.50;;;;;;;14.68;86.49;98654.69;5008924;28;20482;-85
2021/10/29 11:34:37;;;;;;;7.70;1.58;;;;;;;14.01;89.94;98663.03;4993848;28;20027;-84
2021/10/29 11:37:03;;;;;;;6.45;1.20;;;;;;;13.44;92.22;98660.56;4992601;28;20404;-85
2021/10/29 11:39:29;;;;;;;7.93;2.70;;;;;;;12.79;92.75;98661.88;5008543;28;20023;-86
2021/10/29 11:41:55;;;;;;;5.82;1.73;;;;;;;12.47;95.70;98649.69;4992126;28;20065;-83
2021/10/29 11:44:23;;;;;;;10.27;1.77;;;;;;;12.70;96.79;98664.09;4976459;28;20145;-84
2021/10/29 11:46:50;;;;;;;7.55;2.10;;;;;;;13.14;95.50;98654.38;5008284;28;20105;-84
2021/10/29 11:49:21;;;;;;;5.60;1.80;;;;;;;13.77;93.91;98647.03;4992598;28;20030;-85
2021/10/29 11:51:47;;;;;;;12.90;1.90;;;;;;;14.68;90.21;98632.25;4991897;28;20018;-85
2021/10/29 11:54:27;;;;;;;6.10;1.30;;;;;;;15.97;86.77;98634.91;4992267;28;20527;-82
2021/10/29 12:07:56;;;;;;;7.43;1.67;;;;;;;17.69;82.72;98632.00;4992071;28;20491;-83
2021/10/29 12:10:22;;;;;;;11.35;1.17;;;;;;;17.80;79.07;98617.34;4992134;28;20030;-84
2021/10/29 12:12:53;;;;;;;9.00;1.65;;;;;;;16.99;80.64;98615.44;5007599;28;20559;-84
2021/10/29 12:15:26;;;;;;;15.43;2.17;;;;;;;15.90;81.88;98605.31;4991875;28;20034;-84
2021/10/29 12:18:05;;;;;;;9.43;1.77;;;;;;;15.13;83.99;98609.38;4991961;28;20092;-84
2021/10/29 12:20:33;;;;;;;6.90;1.02;;;;;;;14.68;85.34;98610.59;4977037;28;20030;-84
2021/10/29 12:23:14;;;;;;;13.82;2.10;;;;;;;16.46;82.45;98605.56;4992970;28;20488;-84
2021/10/29 12:28:25;;;;;;;8.88;1.52;;;;;;;17.95;74.46;98595.56;5008105;28;20033;-84
2021/10/29 12:31:11;;;;;;;8.17;1.57;;;;;;;18.01;71.93;98608.03;4977680;28;20038;-83
2021/10/29 12:58:58;;;;;;;9.88;1.80;;;;;;;15.83;71.50;98581.19;4993418;28;20057;-84
2021/10/29 13:01:27;;;;;;;6.93;1.83;;;;;;;14.69;77.36;98567.06;5005328;28;20033;-84
2021/10/29 13:04:17;;;;;;;7.72;1.30;;;;;;;14.03;77.46;98572.56;4990948;28;20368;-84
2021/10/29 13:06:51;;;;;;;7.15;1.45;;;;;;;13.40;78.87;98565.78;4975070;28;20031;-83
2021/10/29 13:09:23;;;;;;;6.90;1.60;;;;;;;13.47;79.47;98565.59;4991195;28;20033;-83
2021/10/29 13:12:06;;;;;;;5.15;1.35;;;;;;;15.32;77.12;98559.19;4990338;28;20051;-83
2021/10/29 13:17:06;;;;;;;9.63;3.40;;;;;;;20.23;64.89;98550.72;4991502;28;20543;-84
2021/10/29 13:57:19;;;;;;;11.68;1.40;;;;;;;14.04;74.23;98519.31;4992577;28;20381;-84
2021/10/29 14:16:38;;;;;;;36.75;11.00;;;;;;;13.29;73.38;98500.03;4994049;28;20090;-85
2021/10/29 14:35:43;;;;;;;22.80;8.18;;;;;;;12.43;75.42;98477.91;4993737;28;20038;-83
2021/10/29 14:43:10;;;;;;;45.17;15.65;;;;;;;11.99;75.89;98470.41;4994040;28;20129;-82
2021/10/29 15:04:38;;;;;;;11.57;6.30;;;;;;;10.65;85.05;98459.72;4994336;28;20037;-84
2021/10/29 15:07:21;;;;;;;27.48;8.18;;;;;;;10.53;86.33;98440.88;4992407;28;20033;-85
2021/10/29 15:15:48;;;;;;;5.35;2.65;;;;;;;10.62;87.04;98450.25;4992980;28;20038;-82
2021/10/29 15:24:30;;;;;;;20.30;7.13;;;;;;;10.68;87.00;98448.50;4981309;28;20476;-83
2021/10/29 15:42:47;;;;;;;10.55;3.83;;;;;;;10.82;85.95;98441.84;4995076;28;20053;-85
2021/10/29 15:45:21;;;;;;;6.18;2.72;;;;;;;10.72;86.09;98433.56;4962274;28;20034;-82
2021/10/29 15:48:00;;;;;;;12.60;3.28;;;;;;;10.70;86.10;98432.97;4977253;28;20469;-84
2021/10/29 15:50:34;;;;;;;16.70;3.42;;;;;;;10.66;86.89;98426.41;4993451;28;20026;-82
2021/10/29 15:53:00;;;;;;;10.05;2.45;;;;;;;10.65;86.60;98422.09;4975992;28;20066;-83
2021/10/29 16:00:54;;;;;;;10.50;2.80;;;;;;;10.53;86.08;98428.28;4992452;28;20026;-83
2021/10/29 16:19:35;;;;;;;10.07;4.47;;;;;;;10.36;87.85;98396.97;5005480;28;20101;-83
2021/10/29 16:22:07;;;;;;;10.10;4.43;;;;;;;10.27;88.06;98385.72;4992731;28;20038;-84
2021/10/29 16:24:33;;;;;;;15.90;5.22;;;;;;;10.25;87.77;98394.00;5007693;28;20026;-83
2021/10/29 16:26:59;;;;;;;15.55;6.15;;;;;;;10.21;87.79;98392.81;4991601;28;20081;-84
2021/10/29 16:29:26;;;;;;;13.43;4.90;;;;;;;10.15;86.94;98383.00;4992845;28;20461;-85
2021/10/29 16:31:54;;;;;;;40.67;9.27;;;;;;;10.13;86.36;98382.41;4992494;28;20028;-84
2021/10/29 16:34:20;;;;;;;54.28;12.77;;;;;;;10.10;86.14;98383.69;4975800;28;20030;-85